Time;durP1;ratioP1;P1;durP2;ratioP2;P2;SDS_P1;SDS_P2;PMS_P1;PMS_P2;Temp;Humidity;BMP_temperature;BMP_pressure;BME280_temperature;BME280_humidity;BME280_pressure;Samples;Min_cycle;Max_cycle;Signal;HPM_P1;HPM_P2
2022/09/16 00:01:42;;;;;;;;;;;;;;;21.44;30.56;97116.56;5060277;28;914;-77
2022/09/16 00:04:08;;;;;;;;;;;;;;;21.58;30.14;97113.16;5041868;28;1913;-76
2022/09/16 00:06:33;;;;;;;;;;;;;;;21.56;30.46;97118.50;5059765;28;754;-77
2022/09/16 00:09:02;;;;;;;;;;;;;;;21.62;30.11;97116.63;5041099;28;1454;-76
2022/09/16 00:11:27;;;;;;;;;;;;;;;21.65;30.12;97115.69;5041752;28;1222;-76
2022/09/16 00:13:53;;;;;;;;;;;;;;;21.49;30.55;97118.78;5041602;28;969;-76
2022/09/16 00:16:22;;;;;;;;;;;;;;;21.57;30.18;97125.75;5059569;28;867;-76
2022/09/16 00:18:47;;;;;;;;;;;;;;;21.44;30.39;97117.34;5058240;28;1470;-77
2022/09/16 00:21:13;;;;;;;;;;;;;;;21.41;30.54;97123.16;5059374;28;827;-77
2022/09/16 00:23:38;;;;;;;;;;;;;;;21.39;30.37;97111.50;5041631;28;894;-76
2022/09/16 00:26:04;;;;;;;;;;;;;;;21.32;30.76;97116.19;5041120;28;1906;-77
2022/09/16 00:28:29;;;;;;;;;;;;;;;21.38;30.99;97118.41;5024278;28;1396;-76
2022/09/16 00:31:01;;;;;;;;;;;;;;;21.35;30.75;97122.16;5041501;28;870;-77
2022/09/16 00:33:26;;;;;;;;;;;;;;;21.51;30.54;97116.28;5041627;28;932;-77
2022/09/16 00:35:52;;;;;;;;;;;;;;;21.40;30.97;97118.72;5041367;28;934;-77
2022/09/16 00:38:17;;;;;;;;;;;;;;;21.45;30.77;97112.47;5058954;28;988;-77
2022/09/16 00:40:44;;;;;;;;;;;;;;;21.44;30.97;97100.34;5058831;28;829;-76
2022/09/16 00:43:11;;;;;;;;;;;;;;;21.68;30.52;97106.28;5040614;28;1498;-76
2022/09/16 00:45:37;;;;;;;;;;;;;;;21.67;30.24;97106.75;5041069;28;1906;-77
2022/09/16 00:48:04;;;;;;;;;;;;;;;21.73;30.38;97102.81;5058611;28;1074;-76
2022/09/16 00:50:30;;;;;;;;;;;;;;;21.50;30.74;97104.19;5024833;28;1242;-77
2022/09/16 00:52:55;;;;;;;;;;;;;;;21.38;30.73;97098.59;5059124;28;818;-77
2022/09/16 00:55:25;;;;;;;;;;;;;;;21.59;30.57;97106.22;5024884;28;966;-77
2022/09/16 00:57:50;;;;;;;;;;;;;;;21.57;30.61;97097.44;5038707;28;1517;-77
2022/09/16 01:00:16;;;;;;;;;;;;;;;21.32;30.79;97101.25;4997180;28;876;-77
2022/09/16 01:02:42;;;;;;;;;;;;;;;21.35;30.61;97102.34;4964674;28;866;-76
2022/09/16 01:05:11;;;;;;;;;;;;;;;21.33;30.59;97106.44;4997045;28;1902;-76
2022/09/16 01:07:48;;;;;;;;;;;;;;;21.47;30.62;97109.97;4996756;28;1669;-77
2022/09/16 01:10:15;;;;;;;;;;;;;;;21.39;30.70;97103.00;5000044;28;1102;-76
2022/09/16 01:12:41;;;;;;;;;;;;;;;21.44;30.56;97099.56;5000074;28;976;-77
2022/09/16 01:15:07;;;;;;;;;;;;;;;21.37;30.33;97111.19;4984251;28;1248;-76
2022/09/16 01:17:44;;;;;;;;;;;;;;;21.33;30.51;97112.09;5000109;28;794;-76
2022/09/16 01:20:28;;;;;;;;;;;;;;;21.44;30.48;97111.69;5016586;28;899;-77
2022/09/16 01:23:12;;;;;;;;;;;;;;;21.33;30.53;97109.28;5015291;28;1401;-76
2022/09/16 01:25:48;;;;;;;;;;;;;;;21.44;30.34;97105.22;4999675;28;1902;-76
2022/09/16 01:28:20;;;;;;;;;;;;;;;21.33;30.29;97100.78;4999868;28;949;-76
2022/09/16 01:30:48;;;;;;;;;;;;;;;21.31;30.48;97097.66;5006138;28;932;-76
2022/09/16 01:33:30;;;;;;;;;;;;;;;21.35;30.40;97093.88;5053924;28;783;-76
2022/09/16 01:36:08;;;;;;;;;;;;;;;21.51;30.24;97093.63;5053304;28;824;-77
2022/09/16 01:38:36;;;;;;;;;;;;;;;21.42;30.21;97100.03;5050717;28;1486;-77
2022/09/16 01:41:05;;;;;;;;;;;;;;;21.45;30.26;97095.47;5057600;28;848;-76
2022/09/16 01:43:53;;;;;;;;;;;;;;;21.57;30.05;97103.09;5040508;28;1457;-76
2022/09/16 01:46:20;;;;;;;;;;;;;;;21.27;30.35;97091.31;5057845;28;1910;-77
2022/09/16 01:48:57;;;;;;;;;;;;;;;21.45;30.39;97084.16;5040177;28;970;-76
2022/09/16 01:51:43;;;;;;;;;;;;;;;21.25;30.71;97088.16;5040004;28;814;-76
2022/09/16 01:54:30;;;;;;;;;;;;;;;21.29;30.46;97088.78;5056174;28;1690;-76
2022/09/16 01:57:07;;;;;;;;;;;;;;;21.50;30.08;97081.53;5058128;28;843;-77
2022/09/16 01:59:49;;;;;;;;;;;;;;;21.46;30.29;97074.44;5039619;28;927;-76
2022/09/16 02:02:41;;;;;;;;;;;;;;;21.33;30.58;97083.81;5057535;28;746;-77
2022/09/16 02:05:14;;;;;;;;;;;;;;;21.46;30.07;97080.88;4979645;28;1922;-76
2022/09/16 02:07:42;;;;;;;;;;;;;;;21.28;30.12;97084.38;4978223;28;1549;-76
2022/09/16 02:10:11;;;;;;;;;;;;;;;21.46;30.23;97082.94;4979349;28;1210;-76
2022/09/16 02:12:37;;;;;;;;;;;;;;;21.54;29.88;97087.03;4995862;28;1007;-77
2022/09/16 02:15:04;;;;;;;;;;;;;;;21.46;30.12;97080.09;4979934;28;1051;-77
2022/09/16 02:17:31;;;;;;;;;;;;;;;21.39;30.23;97086.81;4979527;28;862;-76
2022/09/16 02:19:58;;;;;;;;;;;;;;;21.46;30.06;97085.75;4979487;28;1004;-77
2022/09/16 02:22:24;;;;;;;;;;;;;;;21.68;29.54;97089.28;4975082;28;1572;-76
2022/09/16 02:24:50;;;;;;;;;;;;;;;21.50;30.19;97077.88;4959698;28;1914;-77
2022/09/16 02:27:16;;;;;;;;;;;;;;;21.55;30.01;97068.78;4963677;28;993;-76
2022/09/16 02:29:43;;;;;;;;;;;;;;;21.33;30.24;97078.16;4979415;28;1014;-76
2022/09/16 02:32:08;;;;;;;;;;;;;;;21.47;30.22;97082.47;4979513;28;1229;-76
2022/09/16 02:34:38;;;;;;;;;;;;;;;21.53;29.82;97085.47;4962979;28;951;-77
2022/09/16 02:37:05;;;;;;;;;;;;;;;21.37;30.35;97086.50;4979327;28;962;-76
2022/09/16 02:39:31;;;;;;;;;;;;;;;21.43;30.29;97089.50;4979097;28;842;-77
2022/09/16 02:41:57;;;;;;;;;;;;;;;21.57;29.96;97091.78;4994496;28;1617;-77
2022/09/16 02:44:23;;;;;;;;;;;;;;;21.44;30.02;97085.41;5017166;28;1906;-76
2022/09/16 02:46:54;;;;;;;;;;;;;;;21.54;29.79;97087.03;4999767;28;796;-77
2022/09/16 02:49:49;;;;;;;;;;;;;;;21.37;30.15;97094.22;5017297;28;876;-76
2022/09/16 02:52:16;;;;;;;;;;;;;;;21.28;30.24;97090.03;4937417;29;1033;-76
2022/09/16 02:54:45;;;;;;;;;;;;;;;21.37;30.24;97092.16;4937954;29;800;-77
2022/09/16 02:57:11;;;;;;;;;;;;;;;21.40;30.06;97090.44;4936248;29;1478;-76
2022/09/16 02:59:37;;;;;;;;;;;;;;;21.28;30.70;97089.25;4937599;29;1006;-76
2022/09/16 03:02:02;;;;;;;;;;;;;;;21.27;30.54;97085.66;4921451;29;1033;-76
2022/09/16 03:04:27;;;;;;;;;;;;;;;21.28;30.28;97084.38;4922800;29;2042;-77
2022/09/16 03:06:53;;;;;;;;;;;;;;;21.64;29.92;97085.03;4925548;29;835;-76
2022/09/16 03:09:22;;;;;;;;;;;;;;;21.58;30.02;97082.00;4957272;28;1121;-76
2022/09/16 03:12:06;;;;;;;;;;;;;;;21.70;29.76;97083.94;4963725;28;1089;-76
2022/09/16 03:14:32;;;;;;;;;;;;;;;21.31;30.35;97079.88;4978862;28;1457;-77
2022/09/16 03:16:58;;;;;;;;;;;;;;;21.49;30.05;97079.16;4979642;28;972;-76
2022/09/16 03:19:42;;;;;;;;;;;;;;;21.50;30.37;97090.03;4979430;28;1010;-76
2022/09/16 03:22:07;;;;;;;;;;;;;;;21.37;30.58;97088.53;4979591;28;1092;-76
2022/09/16 03:24:51;;;;;;;;;;;;;;;21.38;30.60;97084.47;4979428;28;1918;-77
2022/09/16 03:27:22;;;;;;;;;;;;;;;21.35;30.27;97091.03;4963156;28;1000;-77
2022/09/16 03:29:49;;;;;;;;;;;;;;;21.42;30.53;97090.78;5039425;28;1335;-76
2022/09/16 03:32:20;;;;;;;;;;;;;;;21.39;30.36;97098.13;5022577;28;1562;-77
2022/09/16 03:35:01;;;;;;;;;;;;;;;21.37;30.46;97089.34;5023140;28;1051;-77
2022/09/16 03:37:27;;;;;;;;;;;;;;;21.32;30.73;97093.56;5022762;28;978;-76
2022/09/16 03:39:56;;;;;;;;;;;;;;;21.39;30.68;97097.34;5022519;28;1044;-76
2022/09/16 03:42:22;;;;;;;;;;;;;;;21.40;30.36;97107.41;5022605;28;770;-76
2022/09/16 03:44:47;;;;;;;;;;;;;;;21.36;30.44;97098.28;5022910;28;1926;-76
2022/09/16 03:47:13;;;;;;;;;;;;;;;21.30;30.38;97100.94;5040466;28;1538;-76
2022/09/16 03:49:38;;;;;;;;;;;;;;;21.51;30.45;97110.63;5038977;28;951;-76
2022/09/16 03:52:07;;;;;;;;;;;;;;;21.57;30.23;97114.41;5039056;28;886;-76
2022/09/16 03:54:33;;;;;;;;;;;;;;;21.41;30.25;97129.59;5040286;28;1068;-76
2022/09/16 03:56:59;;;;;;;;;;;;;;;21.32;30.38;97124.69;5039889;28;791;-76
2022/09/16 03:59:25;;;;;;;;;;;;;;;21.11;30.84;97119.81;5039973;28;1031;-76
2022/09/16 04:01:50;;;;;;;;;;;;;;;21.32;30.55;97127.50;5021824;28;1482;-76
2022/09/16 04:04:15;;;;;;;;;;;;;;;21.32;30.53;97121.06;5039914;28;1989;-76
2022/09/16 04:06:41;;;;;;;;;;;;;;;21.51;30.26;97116.28;5021193;28;1123;-77
2022/09/16 04:09:07;;;;;;;;;;;;;;;21.35;30.37;97120.16;5039436;28;1332;-76
2022/09/16 04:11:33;;;;;;;;;;;;;;;21.40;30.49;97115.91;5038584;28;962;-76
2022/09/16 04:13:59;;;;;;;;;;;;;;;21.56;30.37;97107.19;5046544;28;1668;-76
2022/09/16 04:16:25;;;;;;;;;;;;;;;21.31;30.41;97082.72;5040861;28;919;-77
2022/09/16 04:18:50;;;;;;;;;;;;;;;21.43;30.64;97109.31;5059587;28;794;-76
2022/09/16 04:21:16;;;;;;;;;;;;;;;21.46;30.66;97114.84;5041551;28;873;-76
2022/09/16 04:23:41;;;;;;;;;;;;;;;21.63;30.43;97118.19;5041754;28;992;-76
2022/09/16 04:26:07;;;;;;;;;;;;;;;21.70;30.59;97119.94;5041128;28;1902;-76
2022/09/16 04:28:32;;;;;;;;;;;;;;;21.65;30.63;97120.56;4981351;28;922;-76
2022/09/16 04:31:01;;;;;;;;;;;;;;;21.63;30.56;97112.53;4997541;28;868;-76
2022/09/16 04:33:28;;;;;;;;;;;;;;;21.50;31.12;97109.84;4981380;28;1331;-76
2022/09/16 04:35:53;;;;;;;;;;;;;;;21.36;31.49;97115.28;4981425;28;1117;-76
2022/09/16 04:38:18;;;;;;;;;;;;;;;21.54;31.01;97109.66;4981495;28;1137;-76
2022/09/16 04:40:44;;;;;;;;;;;;;;;21.63;31.02;97129.53;4997775;28;955;-77
2022/09/16 04:43:09;;;;;;;;;;;;;;;21.56;31.17;97129.81;4997903;28;1091;-77
2022/09/16 04:45:35;;;;;;;;;;;;;;;21.44;31.67;97123.00;4981296;28;1906;-77
2022/09/16 04:48:00;;;;;;;;;;;;;;;21.64;31.26;97127.47;4981156;28;1266;-76
2022/09/16 04:50:26;;;;;;;;;;;;;;;21.56;31.32;97129.81;4981357;28;883;-77
2022/09/16 04:52:52;;;;;;;;;;;;;;;21.33;31.81;97123.41;4997169;28;998;-77
2022/09/16 04:55:17;;;;;;;;;;;;;;;21.46;31.76;97126.16;4977574;28;867;-77
2022/09/16 04:57:43;;;;;;;;;;;;;;;21.64;31.27;97114.13;4977594;28;897;-77
2022/09/16 05:00:09;;;;;;;;;;;;;;;21.71;31.10;97124.34;4991115;28;920;-77
2022/09/16 05:02:34;;;;;;;;;;;;;;;21.60;31.44;97124.78;5016565;28;913;-77
2022/09/16 05:05:00;;;;;;;;;;;;;;;21.75;31.26;97120.13;5016545;28;1902;-77
2022/09/16 05:07:26;;;;;;;;;;;;;;;21.67;31.60;97118.84;4983692;28;1035;-77
2022/09/16 05:09:52;;;;;;;;;;;;;;;21.39;31.99;97117.94;5016821;28;1109;-76
2022/09/16 05:12:17;;;;;;;;;;;;;;;21.72;31.31;97109.75;5000363;28;1333;-76
2022/09/16 05:14:43;;;;;;;;;;;;;;;21.59;31.65;97114.72;5000336;28;921;-77
2022/09/16 05:17:08;;;;;;;;;;;;;;;21.53;31.85;97127.91;5016338;28;946;-77
2022/09/16 05:19:33;;;;;;;;;;;;;;;21.67;31.66;97124.53;5000208;28;1132;-77
2022/09/16 05:21:59;;;;;;;;;;;;;;;21.69;31.46;97127.66;5000235;28;1141;-77
2022/09/16 05:24:25;;;;;;;;;;;;;;;21.88;31.24;97122.06;4999830;28;1906;-78
2022/09/16 05:26:50;;;;;;;;;;;;;;;21.85;31.54;97120.94;5029812;28;967;-77
2022/09/16 05:29:16;;;;;;;;;;;;;;;21.78;31.58;97115.59;5039935;28;1092;-78
2022/09/16 05:31:41;;;;;;;;;;;;;;;21.72;31.75;97121.06;5023959;28;715;-77
2022/09/16 05:34:12;;;;;;;;;;;;;;;21.70;31.71;97122.78;5058112;28;811;-78
2022/09/16 05:36:38;;;;;;;;;;;;;;;21.97;31.16;97122.09;5040867;28;830;-78
2022/09/16 05:39:03;;;;;;;;;;;;;;;21.73;31.43;97122.66;5040369;28;707;-78
2022/09/16 05:41:29;;;;;;;;;;;;;;;21.78;31.30;97127.69;5058005;28;716;-78
2022/09/16 05:43:57;;;;;;;;;;;;;;;21.68;31.79;97125.31;5040563;28;783;-78
2022/09/16 05:46:23;;;;;;;;;;;;;;;21.65;31.95;97127.00;5039800;28;1910;-77
2022/09/16 05:48:49;;;;;;;;;;;;;;;21.77;31.62;97131.78;5040377;28;950;-78
2022/09/16 05:51:15;;;;;;;;;;;;;;;21.77;31.42;97134.63;5040178;28;727;-78
2022/09/16 05:53:40;;;;;;;;;;;;;;;21.98;31.13;97132.94;5057472;28;865;-77
2022/09/16 05:56:09;;;;;;;;;;;;;;;22.04;31.24;97135.94;5040031;28;862;-78
2022/09/16 05:58:35;;;;;;;;;;;;;;;21.62;31.61;97136.44;5040499;28;795;-78
2022/09/16 06:01:01;;;;;;;;;;;;;;;21.70;31.60;97145.44;5040366;28;1108;-79
2022/09/16 06:03:27;;;;;;;;;;;;;;;21.77;31.64;97140.28;5023937;28;1116;-79
2022/09/16 06:06:19;;;;;;;;;;;;;;;21.87;31.61;97151.66;5039926;28;1988;-79
2022/09/16 06:08:44;;;;;;;;;;;;;;;21.90;31.27;97145.81;5054460;28;1042;-79
2022/09/16 06:11:10;;;;;;;;;;;;;;;21.97;31.15;97147.59;5040151;28;743;-79
2022/09/16 06:13:35;;;;;;;;;;;;;;;22.00;31.26;97140.97;5039803;28;724;-79
2022/09/16 06:16:01;;;;;;;;;;;;;;;21.87;31.52;97149.59;5039976;28;770;-79
2022/09/16 06:18:28;;;;;;;;;;;;;;;21.89;31.53;97149.13;5039679;28;688;-79
2022/09/16 06:20:53;;;;;;;;;;;;;;;21.91;31.65;97152.25;5040003;28;905;-79
2022/09/16 06:23:19;;;;;;;;;;;;;;;21.88;31.65;97150.38;5039654;28;750;-79
2022/09/16 06:25:44;;;;;;;;;;;;;;;21.95;31.29;97144.41;5023205;28;1989;-78
2022/09/16 06:28:10;;;;;;;;;;;;;;;22.00;31.23;97146.63;5039216;28;810;-78
2022/09/16 06:30:36;;;;;;;;;;;;;;;21.78;31.69;97153.19;5056882;28;901;-78
2022/09/16 06:33:01;;;;;;;;;;;;;;;21.79;31.94;97160.41;5039474;28;763;-79
2022/09/16 06:35:27;;;;;;;;;;;;;;;21.98;31.76;97164.09;5057138;28;776;-77
2022/09/16 06:37:52;;;;;;;;;;;;;;;21.90;31.78;97170.50;5039938;28;1159;-78
2022/09/16 06:40:18;;;;;;;;;;;;;;;22.01;31.52;97165.97;5006302;28;1232;-78
2022/09/16 06:42:43;;;;;;;;;;;;;;;21.99;31.64;97162.84;5022965;28;758;-78
2022/09/16 06:45:09;;;;;;;;;;;;;;;21.68;32.25;97162.91;5022821;28;1977;-78
2022/09/16 06:47:34;;;;;;;;;;;;;;;21.83;31.83;97169.56;5022591;28;857;-78
2022/09/16 06:50:00;;;;;;;;;;;;;;;21.70;32.09;97163.19;5056717;28;896;-78
2022/09/16 06:52:25;;;;;;;;;;;;;;;21.79;31.64;97165.28;5038822;28;791;-78
2022/09/16 06:54:51;;;;;;;;;;;;;;;21.84;31.86;97165.47;5039264;28;727;-78
2022/09/16 06:57:21;;;;;;;;;;;;;;;21.90;31.46;97182.63;5039081;28;1386;-78
2022/09/16 06:59:47;;;;;;;;;;;;;;;21.98;31.40;97164.09;5057430;28;770;-78
2022/09/16 07:02:13;;;;;;;;;;;;;;;21.89;31.85;97168.94;5057052;28;792;-77
2022/09/16 07:04:38;;;;;;;;;;;;;;;21.79;31.75;97171.75;5056979;28;1914;-78
2022/09/16 07:07:04;;;;;;;;;;;;;;;21.84;31.68;97171.13;5056736;28;742;-78
2022/09/16 07:09:29;;;;;;;;;;;;;;;21.82;31.86;97170.81;5022443;28;1156;-78
2022/09/16 07:11:55;;;;;;;;;;;;;;;21.91;31.66;97166.41;5038992;28;763;-78
2022/09/16 07:14:21;;;;;;;;;;;;;;;21.91;31.78;97160.75;5039140;28;747;-78
2022/09/16 07:16:46;;;;;;;;;;;;;;;21.83;32.01;97169.56;5022473;28;739;-79
2022/09/16 07:19:12;;;;;;;;;;;;;;;22.00;31.73;97163.63;5056320;28;735;-78
2022/09/16 07:21:37;;;;;;;;;;;;;;;21.95;31.76;97178.41;5022363;28;1123;-78
2022/09/16 07:24:03;;;;;;;;;;;;;;;21.81;31.83;97180.56;5022122;28;732;-78
2022/09/16 07:26:29;;;;;;;;;;;;;;;21.77;32.13;97173.47;5038766;28;1969;-78
2022/09/16 07:28:57;;;;;;;;;;;;;;;21.83;32.13;97166.72;5039554;28;747;-78
2022/09/16 07:31:24;;;;;;;;;;;;;;;21.84;31.82;97168.28;5022576;28;767;-78
2022/09/16 07:33:50;;;;;;;;;;;;;;;21.79;31.84;97168.91;5038639;28;695;-78
2022/09/16 07:36:16;;;;;;;;;;;;;;;21.66;32.15;97167.44;5038805;28;719;-78
2022/09/16 07:38:42;;;;;;;;;;;;;;;21.76;32.11;97172.69;5039173;28;865;-78
2022/09/16 07:41:11;;;;;;;;;;;;;;;21.90;31.92;97176.97;5056500;28;758;-78
2022/09/16 07:43:37;;;;;;;;;;;;;;;21.87;31.98;97172.25;5022306;28;1281;-78
2022/09/16 07:46:02;;;;;;;;;;;;;;;21.72;32.56;97172.03;5038606;28;1961;-78
2022/09/16 07:48:29;;;;;;;;;;;;;;;21.89;31.87;97166.91;5056388;28;779;-78
2022/09/16 07:50:58;;;;;;;;;;;;;;;21.83;31.93;97161.06;5022870;28;772;-78
2022/09/16 07:53:26;;;;;;;;;;;;;;;22.02;31.59;97167.56;5042083;28;896;-78
2022/09/16 07:55:52;;;;;;;;;;;;;;;21.85;32.17;97184.03;5042990;28;748;-78
2022/09/16 07:58:18;;;;;;;;;;;;;;;21.81;32.37;97180.56;5017985;28;816;-78
2022/09/16 08:00:43;;;;;;;;;;;;;;;21.88;32.28;97178.69;5018260;28;837;-78
2022/09/16 08:03:09;;;;;;;;;;;;;;;21.78;32.11;97175.84;5018190;28;940;-78
2022/09/16 08:05:34;;;;;;;;;;;;;;;22.08;32.00;97179.09;5018224;28;1910;-78
2022/09/16 08:08:00;;;;;;;;;;;;;;;22.07;31.88;97174.66;5017750;28;971;-79
2022/09/16 08:10:25;;;;;;;;;;;;;;;22.04;32.23;97184.09;5017713;28;1229;-78
2022/09/16 08:12:51;;;;;;;;;;;;;;;21.98;32.05;97178.25;5018013;28;976;-78
2022/09/16 08:15:16;;;;;;;;;;;;;;;22.00;31.96;97191.94;5017740;28;858;-78
2022/09/16 08:17:42;;;;;;;;;;;;;;;21.91;32.17;97183.41;5018008;28;833;-78
2022/09/16 08:23:41;;;;;;;;;;;;;;;22.01;32.21;97176.53;5017960;28;821;-79
2022/09/16 08:26:08;;;;;;;;;;;;;;;22.16;32.16;97177.53;5017662;28;1902;-78
2022/09/16 08:28:34;;;;;;;;;;;;;;;22.32;31.64;97173.63;5025568;28;997;-78
2022/09/16 08:30:59;;;;;;;;;;;;;;;22.22;31.83;97174.88;5025232;28;821;-78
2022/09/16 08:33:25;;;;;;;;;;;;;;;22.20;32.23;97168.91;5025157;28;794;-78
2022/09/16 08:36:00;;;;;;;;;;;;;;;22.18;31.89;97163.72;5059321;28;755;-78
2022/09/16 08:38:25;;;;;;;;;;;;;;;22.39;31.75;97169.72;5008820;28;1231;-79
2022/09/16 08:40:51;;;;;;;;;;;;;;;22.20;32.40;97169.69;5041537;28;703;-78
2022/09/16 08:46:53;;;;;;;;;;;;;;;22.24;32.21;97161.81;4997477;28;912;-79
2022/09/16 08:49:26;;;;;;;;;;;;;;;22.24;32.36;97161.81;4965389;28;735;-78
2022/09/16 08:51:55;;;;;;;;;;;;;;;22.14;32.31;97159.44;4997536;28;886;-78
2022/09/16 08:57:59;;;;;;;;;;;;;;;22.23;32.41;97154.59;4997384;28;920;-79
2022/09/16 09:00:24;;;;;;;;;;;;;;;22.10;32.66;97151.88;4997286;28;899;-79
2022/09/16 09:03:26;;;;;;;;;;;;;;;22.16;32.49;97160.53;4981017;28;972;-78
2022/09/16 09:05:52;;;;;;;;;;;;;;;22.19;32.59;97153.16;4938874;29;1919;-78
2022/09/16 09:08:31;;;;;;;;;;;;;;;22.28;32.55;97165.31;4922933;29;1203;-78
2022/09/16 09:11:15;;;;;;;;;;;;;;;22.29;32.16;97158.38;4939251;29;929;-78
2022/09/16 09:13:43;;;;;;;;;;;;;;;22.05;32.69;97160.19;4938844;29;939;-79
2022/09/16 09:16:11;;;;;;;;;;;;;;;22.18;32.28;97157.25;4938885;29;1047;-78
2022/09/16 09:22:33;;;;;;;;;;;;;;;22.36;32.20;97152.38;4942701;28;997;-79
2022/09/16 09:25:02;;;;;;;;;;;;;;;22.32;32.36;97154.59;4961321;28;1914;-79
2022/09/16 09:27:32;;;;;;;;;;;;;;;22.28;32.36;97156.81;4977032;28;926;-78
2022/09/16 09:30:06;;;;;;;;;;;;;;;22.19;32.57;97148.28;4977044;28;712;-78
2022/09/16 09:32:53;;;;;;;;;;;;;;;22.20;32.35;97163.22;4977046;28;1104;-78
2022/09/16 09:38:53;;;;;;;;;;;;;;;22.24;32.18;97163.88;4982785;28;861;-78
2022/09/16 09:41:22;;;;;;;;;;;;;;;22.29;32.17;97169.72;5052736;28;963;-78
2022/09/16 09:43:55;;;;;;;;;;;;;;;22.29;32.21;97164.03;5057651;28;743;-78
2022/09/16 09:46:23;;;;;;;;;;;;;;;22.25;32.04;97157.72;5015423;28;1993;-78
2022/09/16 09:49:01;;;;;;;;;;;;;;;22.39;31.86;97162.00;4994434;28;859;-78
2022/09/16 09:51:26;;;;;;;;;;;;;;;22.26;32.17;97164.97;4995939;28;1237;-78
2022/09/16 09:53:52;;;;;;;;;;;;;;;22.43;31.61;97173.97;4995903;28;908;-78
2022/09/16 09:56:28;;;;;;;;;;;;;;;22.35;31.91;97173.50;4957017;29;867;-78
2022/09/16 09:58:59;;;;;;;;;;;;;;;22.33;31.75;97175.22;4941060;29;781;-78
2022/09/16 10:01:25;;;;;;;;;;;;;;;22.25;31.96;97179.63;4925069;29;931;-77
2022/09/16 10:03:51;;;;;;;;;;;;;;;22.36;31.73;97174.28;4925419;29;1245;-78
2022/09/16 10:06:16;;;;;;;;;;;;;;;22.31;31.75;97175.69;4941279;29;1923;-78
2022/09/16 10:08:45;;;;;;;;;;;;;;;22.29;31.99;97168.91;4940869;29;1212;-78
2022/09/16 10:11:20;;;;;;;;;;;;;;;22.43;31.50;97159.00;4941196;29;1381;-78
2022/09/16 10:13:47;;;;;;;;;;;;;;;22.26;31.82;97170.63;4956361;28;938;-78
2022/09/16 10:16:13;;;;;;;;;;;;;;;22.25;32.13;97169.06;4940904;29;964;-79
2022/09/16 10:19:03;;;;;;;;;;;;;;;22.20;31.87;97166.84;4956831;29;820;-79
2022/09/16 10:21:46;;;;;;;;;;;;;;;22.36;31.74;97169.41;4956915;29;853;-79
2022/09/16 10:24:30;;;;;;;;;;;;;;;22.27;31.96;97165.75;4940807;29;799;-78
2022/09/16 10:26:56;;;;;;;;;;;;;;;22.32;31.97;97163.09;4971100;28;868;-79
2022/09/16 10:29:21;;;;;;;;;;;;;;;22.17;31.97;97162.13;4979454;28;1096;-78
2022/09/16 10:31:47;;;;;;;;;;;;;;;22.23;32.20;97160.25;4995767;28;723;-78
2022/09/16 10:34:21;;;;;;;;;;;;;;;22.36;31.79;97158.06;4990885;28;1189;-78
2022/09/16 10:36:48;;;;;;;;;;;;;;;22.26;31.80;97164.97;5019431;28;767;-78
2022/09/16 10:42:50;;;;;;;;;;;;;;;22.31;31.82;97155.84;5036590;28;652;-78
2022/09/16 10:45:21;;;;;;;;;;;;;;;22.28;31.56;97156.81;5019127;28;1902;-78
2022/09/16 10:47:48;;;;;;;;;;;;;;;22.43;31.57;97156.16;5019092;28;743;-78
2022/09/16 10:50:17;;;;;;;;;;;;;;;22.30;31.63;97154.28;5002861;28;775;-78
2022/09/16 10:52:44;;;;;;;;;;;;;;;22.22;31.80;97146.53;5036742;28;818;-78
2022/09/16 10:55:18;;;;;;;;;;;;;;;22.56;32.08;97159.66;5003363;28;1259;-78
2022/09/16 10:57:44;;;;;;;;;;;;;;;23.02;33.46;97162.50;5002796;28;755;-79
2022/09/16 11:00:23;;;;;;;;;;;;;;;22.58;34.13;97163.56;5003213;28;1315;-78
2022/09/16 11:02:48;;;;;;;;;;;;;;;22.52;33.94;97164.69;4986525;28;1267;-79
2022/09/16 11:05:26;;;;;;;;;;;;;;;22.53;33.27;97166.25;5014710;28;1985;-78
2022/09/16 11:11:28;;;;;;;;;;;;;;;22.07;33.09;97168.97;4995397;28;617;-79
2022/09/16 11:14:12;;;;;;;;;;;;;;;22.14;32.65;97173.63;4995249;28;834;-78
2022/09/16 11:16:56;;;;;;;;;;;;;;;21.94;32.56;97162.66;4995018;28;776;-78
2022/09/16 11:19:27;;;;;;;;;;;;;;;22.02;32.20;97169.59;4995043;28;786;-78
2022/09/16 11:21:58;;;;;;;;;;;;;;;22.05;31.84;97165.84;4995098;28;688;-78
2022/09/16 11:28:07;;;;;;;;;;;;;;;21.98;31.56;97177.47;4979444;28;796;-78
2022/09/16 11:30:35;;;;;;;;;;;;;;;22.04;31.34;97169.94;4963166;28;814;-78
2022/09/16 11:33:19;;;;;;;;;;;;;;;21.94;31.54;97159.84;4979255;28;866;-78
2022/09/16 11:36:23;;;;;;;;;;;;;;;21.85;31.58;97158.53;4990983;28;755;-78
2022/09/16 11:39:01;;;;;;;;;;;;;;;22.12;31.02;97157.06;4979061;28;738;-77
2022/09/16 11:41:26;;;;;;;;;;;;;;;22.07;30.84;97157.66;4979285;28;882;-78
2022/09/16 11:43:58;;;;;;;;;;;;;;;21.97;31.16;97153.25;4962882;28;991;-78
2022/09/16 11:46:26;;;;;;;;;;;;;;;21.91;31.28;97144.56;4962936;28;1902;-78
2022/09/16 11:52:45;;;;;;;;;;;;;;;21.95;30.83;97127.41;4978948;28;677;-78
2022/09/16 11:55:13;;;;;;;;;;;;;;;22.14;30.90;97139.63;4962627;28;888;-78
2022/09/16 11:57:40;;;;;;;;;;;;;;;22.07;30.57;97140.66;4978699;28;916;-78
2022/09/16 12:00:12;;;;;;;;;;;;;;;21.91;30.97;97133.22;4962889;28;823;-78
2022/09/16 12:02:56;;;;;;;;;;;;;;;22.10;30.61;97125.56;4962515;28;1000;-78
2022/09/16 12:05:22;;;;;;;;;;;;;;;22.17;30.41;97128.09;4978633;28;1906;-78
2022/09/16 12:07:52;;;;;;;;;;;;;;;21.98;30.72;97118.00;4962664;28;895;-78
2022/09/16 12:10:17;;;;;;;;;;;;;;;22.00;30.48;97135.28;5004062;28;1077;-79
2022/09/16 12:12:44;;;;;;;;;;;;;;;21.98;30.72;97120.81;5019551;28;1007;-78
2022/09/16 12:15:19;;;;;;;;;;;;;;;22.12;30.22;97134.41;4962409;28;1108;-78
2022/09/16 12:17:50;;;;;;;;;;;;;;;21.89;30.51;97123.63;4978372;28;991;-78
2022/09/16 12:20:16;;;;;;;;;;;;;;;21.80;31.10;97116.69;4962240;28;915;-78
2022/09/16 12:22:47;;;;;;;;;;;;;;;22.03;30.36;97118.16;4962367;28;1108;-78
2022/09/16 12:25:26;;;;;;;;;;;;;;;21.93;30.61;97124.28;4978231;28;1964;-78
2022/09/16 12:28:11;;;;;;;;;;;;;;;21.90;30.99;97125.19;4962425;28;1157;-78
2022/09/16 12:30:38;;;;;;;;;;;;;;;21.93;30.63;97118.63;4939982;29;1110;-78
2022/09/16 12:33:06;;;;;;;;;;;;;;;21.82;30.87;97119.84;4939586;29;1222;-78
2022/09/16 12:35:36;;;;;;;;;;;;;;;21.88;30.90;97105.84;4939313;29;878;-78
2022/09/16 12:38:02;;;;;;;;;;;;;;;21.98;30.67;97112.34;4939059;29;772;-78
2022/09/16 12:40:28;;;;;;;;;;;;;;;21.89;30.98;97117.97;4939424;29;884;-78
2022/09/16 12:42:56;;;;;;;;;;;;;;;21.84;30.91;97111.66;4939462;29;1097;-78
2022/09/16 12:45:40;;;;;;;;;;;;;;;21.87;30.34;97109.16;4939406;29;1902;-78
2022/09/16 12:48:14;;;;;;;;;;;;;;;21.95;30.32;97111.22;4939123;29;876;-78
2022/09/16 12:50:42;;;;;;;;;;;;;;;21.80;30.53;97110.22;4939132;29;1303;-78
2022/09/16 12:53:26;;;;;;;;;;;;;;;21.91;30.17;97104.13;4967320;28;930;-78
2022/09/16 12:55:52;;;;;;;;;;;;;;;21.88;30.23;97105.06;4977795;28;926;-77
2022/09/16 12:58:17;;;;;;;;;;;;;;;22.01;30.12;97102.88;4977427;28;775;-78
2022/09/16 13:00:58;;;;;;;;;;;;;;;21.95;30.43;97090.59;4977399;28;1009;-78
2022/09/16 13:03:26;;;;;;;;;;;;;;;22.03;30.16;97094.72;4961296;28;768;-78
2022/09/16 13:05:51;;;;;;;;;;;;;;;21.92;30.30;97083.06;4977057;28;1989;-78
2022/09/16 13:08:21;;;;;;;;;;;;;;;21.91;30.52;97087.13;4995897;28;975;-77
2022/09/16 13:10:53;;;;;;;;;;;;;;;21.73;30.71;97082.22;5018016;28;1058;-77
2022/09/16 13:13:27;;;;;;;;;;;;;;;22.02;30.37;97084.63;5005081;28;724;-78
2022/09/16 13:15:56;;;;;;;;;;;;;;;21.83;30.31;97081.78;5004939;28;1214;-77
2022/09/16 13:18:21;;;;;;;;;;;;;;;21.87;30.52;97086.50;5020084;28;881;-77
2022/09/16 13:20:47;;;;;;;;;;;;;;;21.87;30.32;97078.00;5038361;28;708;-77
2022/09/16 13:23:13;;;;;;;;;;;;;;;21.90;30.53;97071.41;5020660;28;728;-78
2022/09/16 13:25:41;;;;;;;;;;;;;;;21.88;30.42;97082.41;5038387;28;1902;-77
2022/09/16 13:28:26;;;;;;;;;;;;;;;21.97;30.33;97080.38;5020528;28;1107;-78
2022/09/16 13:30:52;;;;;;;;;;;;;;;21.79;30.89;97081.13;5004419;28;1128;-78
2022/09/16 13:33:18;;;;;;;;;;;;;;;21.93;30.61;97078.97;5020408;28;747;-78
2022/09/16 13:35:45;;;;;;;;;;;;;;;21.81;30.69;97072.97;5020416;28;751;-78
2022/09/16 13:38:14;;;;;;;;;;;;;;;21.76;30.84;97065.09;5020803;28;838;-78
2022/09/16 13:40:39;;;;;;;;;;;;;;;21.85;30.53;97078.47;5037870;28;783;-78
2022/09/16 13:43:08;;;;;;;;;;;;;;;21.82;30.61;97074.53;5019894;28;795;-78
2022/09/16 13:45:33;;;;;;;;;;;;;;;21.88;30.72;97071.88;5003678;28;1981;-77